Time;durP1;ratioP1;P1;durP2;ratioP2;P2;SDS_P1;SDS_P2;PMS_P1;PMS_P2;Temp;Humidity;BMP_temperature;BMP_pressure;BME280_temperature;BME280_humidity;BME280_pressure;Samples;Min_cycle;Max_cycle;Signal;HPM_P1;HPM_P2
2024/01/06 00:01:30;;;;;;;41.03;21.10;;;;;;;6.87;100.00;100250.59;5077572;28;20036;-73
2024/01/06 00:03:56;;;;;;;38.35;18.75;;;;;;;6.82;100.00;100257.09;5074204;28;20036;-74
2024/01/06 00:06:21;;;;;;;37.13;17.52;;;;;;;6.82;100.00;100257.94;5095384;27;20024;-73
2024/01/06 00:08:53;;;;;;;31.55;15.85;;;;;;;6.78;100.00;100253.78;5063921;27;20479;-73
2024/01/06 00:11:22;;;;;;;32.67;17.13;;;;;;;6.77;100.00;100251.19;5074916;27;20082;-73
2024/01/06 00:13:47;;;;;;;25.33;13.82;;;;;;;6.67;100.00;100250.88;5091383;27;20123;-74
2024/01/06 00:16:16;;;;;;;25.33;13.98;;;;;;;6.64;100.00;100253.72;5068628;27;20676;-73
2024/01/06 00:18:41;;;;;;;33.58;14.23;;;;;;;6.77;100.00;100257.34;5094699;27;20040;-74
2024/01/06 00:21:08;;;;;;;23.45;12.75;;;;;;;6.61;100.00;100257.38;5090268;27;20039;-74
2024/01/06 00:23:33;;;;;;;24.08;13.00;;;;;;;6.59;100.00;100253.13;5107306;27;20032;-73
2024/01/06 00:25:59;;;;;;;24.65;13.32;;;;;;;6.67;100.00;100262.31;5096083;27;20462;-74
2024/01/06 00:28:24;;;;;;;24.98;13.23;;;;;;;6.60;100.00;100260.97;5088254;28;20032;-74
2024/01/06 00:30:50;;;;;;;24.50;12.48;;;;;;;6.64;100.00;100265.16;5090194;27;20051;-74
2024/01/06 00:33:15;;;;;;;27.08;13.27;;;;;;;6.65;100.00;100269.50;5070951;27;25060;-73
2024/01/06 00:35:41;;;;;;;26.67;13.32;;;;;;;6.61;100.00;100269.75;5095210;27;20941;-74
2024/01/06 00:38:06;;;;;;;23.92;13.13;;;;;;;6.62;100.00;100277.63;5097735;27;20044;-74
2024/01/06 00:40:32;;;;;;;25.48;13.98;;;;;;;6.61;100.00;100275.06;5090397;27;20043;-73
2024/01/06 00:42:58;;;;;;;24.05;12.85;;;;;;;6.66;100.00;100276.50;5104588;27;20036;-74
2024/01/06 00:45:24;;;;;;;28.77;13.13;;;;;;;6.55;100.00;100278.91;5093471;27;20039;-74
2024/01/06 00:47:49;;;;;;;28.45;14.10;;;;;;;6.42;100.00;100277.88;5102444;27;20374;-73
2024/01/06 00:50:15;;;;;;;26.17;14.05;;;;;;;6.37;100.00;100277.28;5086080;27;20039;-74
2024/01/06 00:52:41;;;;;;;29.60;14.27;;;;;;;6.29;100.00;100290.09;5102461;27;20051;-73
2024/01/06 00:55:07;;;;;;;31.15;14.57;;;;;;;6.16;100.00;100285.44;5063684;28;20059;-73
2024/01/06 00:57:33;;;;;;;26.88;13.98;;;;;;;6.14;100.00;100281.19;5101658;27;20331;-74
2024/01/06 00:59:58;;;;;;;25.98;13.48;;;;;;;6.11;100.00;100290.13;5088467;27;20105;-74
2024/01/06 01:02:24;;;;;;;29.58;14.25;;;;;;;6.19;100.00;100293.25;5078689;27;20044;-73
2024/01/06 01:04:50;;;;;;;30.80;15.13;;;;;;;6.23;100.00;100294.78;5072633;28;20029;-73
2024/01/06 01:07:15;;;;;;;30.40;16.00;;;;;;;6.26;100.00;100298.19;5090628;28;20857;-73
2024/01/06 01:09:41;;;;;;;27.85;15.23;;;;;;;6.18;100.00;100301.28;5091288;28;20044;-73
2024/01/06 01:12:07;;;;;;;30.20;15.75;;;;;;;6.29;100.00;100298.03;5099415;27;20036;-73
2024/01/06 01:14:32;;;;;;;31.15;15.32;;;;;;;6.21;100.00;100301.09;5099905;27;20036;-73
2024/01/06 01:16:58;;;;;;;33.13;16.13;;;;;;;6.28;100.00;100302.47;5086233;27;20036;-73
2024/01/06 01:19:23;;;;;;;31.63;16.33;;;;;;;6.29;100.00;100311.28;5101451;27;20044;-73
2024/01/06 01:21:49;;;;;;;28.65;16.05;;;;;;;6.28;100.00;100312.22;5097674;27;20117;-73
2024/01/06 01:24:14;;;;;;;32.17;17.17;;;;;;;6.29;100.00;100304.19;5086792;27;20035;-73
2024/01/06 01:26:40;;;;;;;32.10;16.75;;;;;;;6.34;100.00;100306.59;5104059;28;20040;-73
2024/01/06 01:29:05;;;;;;;35.28;18.33;;;;;;;6.36;100.00;100324.09;5113333;27;20036;-74
2024/01/06 01:31:31;;;;;;;36.65;17.73;;;;;;;6.20;100.00;100316.13;5119746;27;20185;-73
2024/01/06 01:33:56;;;;;;;38.30;19.15;;;;;;;6.19;100.00;100316.22;5124485;27;20595;-73
2024/01/06 01:36:22;;;;;;;37.10;18.10;;;;;;;6.18;100.00;100327.75;5091947;28;20824;-74
2024/01/06 01:38:47;;;;;;;35.60;17.38;;;;;;;6.32;100.00;100327.81;5120585;27;20059;-73
2024/01/06 01:41:13;;;;;;;34.92;18.20;;;;;;;6.32;100.00;100334.91;5119114;27;20039;-73
2024/01/06 01:43:38;;;;;;;38.03;18.77;;;;;;;6.34;100.00;100331.28;5118195;27;20032;-73
2024/01/06 01:46:04;;;;;;;36.38;19.02;;;;;;;6.32;100.00;100335.78;5114300;28;20032;-73
2024/01/06 01:48:33;;;;;;;32.13;17.13;;;;;;;6.30;100.00;100337.66;5116331;28;20040;-73
2024/01/06 01:50:59;;;;;;;37.42;18.98;;;;;;;6.34;100.00;100347.16;5125302;27;20036;-74
2024/01/06 01:53:26;;;;;;;34.63;18.38;;;;;;;6.31;100.00;100347.31;5133187;27;20250;-73
2024/01/06 01:55:52;;;;;;;36.05;17.95;;;;;;;6.34;100.00;100357.75;5125197;27;20140;-73
2024/01/06 01:58:18;;;;;;;37.38;19.10;;;;;;;6.35;100.00;100356.81;5111203;28;20032;-74
2024/01/06 02:00:44;;;;;;;33.53;18.38;;;;;;;6.31;100.00;100357.91;5104670;28;20036;-73
2024/01/06 02:03:12;;;;;;;36.35;18.95;;;;;;;6.26;100.00;100359.94;5134917;27;20039;-73
2024/01/06 02:05:38;;;;;;;38.47;19.90;;;;;;;6.28;100.00;100363.38;5125994;28;20028;-73
2024/01/06 02:08:04;;;;;;;34.65;17.85;;;;;;;6.28;100.00;100367.81;5119815;28;20028;-73
2024/01/06 02:10:29;;;;;;;35.78;18.83;;;;;;;6.27;100.00;100366.09;5115409;28;20099;-74
2024/01/06 02:12:55;;;;;;;31.95;17.73;;;;;;;6.25;100.00;100368.81;5118853;27;20032;-75
2024/01/06 02:15:21;;;;;;;40.45;19.83;;;;;;;6.20;100.00;100373.50;5115301;27;20026;-73
2024/01/06 02:17:46;;;;;;;37.08;18.75;;;;;;;6.02;100.00;100383.25;5103825;27;20757;-74
2024/01/06 02:20:14;;;;;;;38.75;19.15;;;;;;;6.19;100.00;100383.25;5117300;27;20480;-74
2024/01/06 02:22:39;;;;;;;42.08;19.88;;;;;;;6.13;100.00;100390.66;5115693;27;20032;-73
2024/01/06 02:25:12;;;;;;;41.92;20.23;;;;;;;6.05;100.00;100392.84;5107478;27;20027;-74
2024/01/06 02:27:39;;;;;;;35.92;18.08;;;;;;;5.93;100.00;100400.47;5104357;27;20193;-74
2024/01/06 02:30:06;;;;;;;39.75;18.50;;;;;;;6.01;100.00;100408.00;5092512;27;20085;-73
2024/01/06 02:32:31;;;;;;;35.88;18.40;;;;;;;5.92;100.00;100406.72;5108869;27;20028;-74
2024/01/06 02:34:57;;;;;;;39.50;19.35;;;;;;;6.10;100.00;100411.97;5088961;28;20063;-74
2024/01/06 02:37:23;;;;;;;38.28;19.23;;;;;;;6.00;100.00;100411.59;5110321;27;20028;-74
2024/01/06 02:39:48;;;;;;;39.10;19.48;;;;;;;5.99;100.00;100412.53;5102922;27;20056;-74
2024/01/06 02:42:14;;;;;;;39.53;19.35;;;;;;;5.97;100.00;100417.91;5110025;27;20032;-73
2024/01/06 02:44:42;;;;;;;41.67;19.05;;;;;;;5.89;100.00;100427.16;5095991;27;20870;-74
2024/01/06 02:47:08;;;;;;;41.80;19.92;;;;;;;5.82;100.00;100436.31;5098383;27;20078;-74
2024/01/06 02:49:33;;;;;;;44.65;21.45;;;;;;;5.78;100.00;100440.06;5083697;27;20042;-73
2024/01/06 02:51:59;;;;;;;45.05;22.50;;;;;;;5.44;100.00;100444.34;5101728;27;20036;-74
2024/01/06 02:54:24;;;;;;;53.28;24.95;;;;;;;5.36;100.00;100454.44;5106070;27;20036;-74
2024/01/06 02:56:50;;;;;;;48.78;22.73;;;;;;;5.26;100.00;100455.81;5104337;27;20032;-74
2024/01/06 02:59:15;;;;;;;50.38;22.83;;;;;;;5.30;100.00;100462.66;5110795;27;20843;-74
2024/01/06 03:01:40;;;;;;;59.88;26.40;;;;;;;5.35;100.00;100460.66;5097867;27;23311;-74
2024/01/06 03:04:06;;;;;;;60.47;26.83;;;;;;;5.33;100.00;100460.75;5100928;27;20630;-74
2024/01/06 03:06:31;;;;;;;60.35;26.92;;;;;;;5.22;100.00;100475.38;5099576;27;20036;-73
2024/01/06 03:08:57;;;;;;;62.95;26.90;;;;;;;5.21;100.00;100477.16;5078628;28;20117;-74
2024/01/06 03:11:22;;;;;;;54.00;25.70;;;;;;;5.07;100.00;100485.78;5097083;27;20035;-73
2024/01/06 03:13:48;;;;;;;55.00;25.42;;;;;;;5.05;100.00;100487.59;5091599;27;20927;-74
2024/01/06 03:16:13;;;;;;;55.88;24.90;;;;;;;5.17;100.00;100494.09;5081057;28;20075;-74
2024/01/06 03:18:39;;;;;;;53.55;25.15;;;;;;;4.98;100.00;100490.63;5106724;27;20145;-73
2024/01/06 03:21:04;;;;;;;56.80;23.60;;;;;;;4.93;100.00;100498.75;5077370;27;20032;-73
2024/01/06 03:23:30;;;;;;;58.50;25.77;;;;;;;5.09;100.00;100499.75;5098396;27;20123;-73
2024/01/06 03:25:55;;;;;;;57.00;25.15;;;;;;;4.81;100.00;100505.44;5092445;27;20044;-74
2024/01/06 03:28:21;;;;;;;63.97;27.73;;;;;;;5.10;100.00;100512.03;5097567;27;20098;-73
2024/01/06 03:30:47;;;;;;;52.47;24.95;;;;;;;4.84;100.00;100510.59;5073107;28;20555;-74
2024/01/06 03:33:12;;;;;;;53.28;24.13;;;;;;;4.96;100.00;100500.38;5071743;28;20036;-73
2024/01/06 03:35:38;;;;;;;53.75;24.88;;;;;;;4.78;100.00;100505.59;5079950;27;20043;-74
2024/01/06 03:38:03;;;;;;;54.25;25.17;;;;;;;4.78;100.00;100515.28;5089543;28;20056;-73
2024/01/06 03:40:29;;;;;;;36.05;16.98;;;;;;;4.86;100.00;100511.34;5079685;27;20032;-74
2024/01/06 03:42:54;;;;;;;35.88;16.73;;;;;;;4.86;100.00;100516.63;5089294;27;20032;-74
2024/01/06 03:45:20;;;;;;;39.78;19.30;;;;;;;4.88;100.00;100509.53;5093571;27;20036;-74
2024/01/06 03:47:45;;;;;;;41.10;18.70;;;;;;;4.93;100.00;100518.09;5099038;27;20098;-74
2024/01/06 03:50:12;;;;;;;35.55;16.98;;;;;;;4.57;100.00;100509.19;5094937;27;20563;-74
2024/01/06 03:52:38;;;;;;;34.55;17.33;;;;;;;4.86;100.00;100524.56;5088720;27;20397;-74
2024/01/06 03:55:05;;;;;;;40.63;18.27;;;;;;;4.75;100.00;100518.06;5098606;27;20036;-73
2024/01/06 03:57:30;;;;;;;40.92;18.73;;;;;;;4.52;100.00;100524.34;5083903;27;20191;-74
2024/01/06 03:59:57;;;;;;;41.15;18.90;;;;;;;4.75;100.00;100536.56;5096514;27;20857;-74
2024/01/06 04:02:23;;;;;;;39.97;18.48;;;;;;;4.82;100.00;100533.59;5089556;27;20064;-74
2024/01/06 04:04:49;;;;;;;42.97;19.02;;;;;;;4.92;100.00;100529.59;5073354;28;20105;-73
2024/01/06 04:07:14;;;;;;;40.60;19.50;;;;;;;4.87;100.00;100536.88;5101420;27;20036;-74
2024/01/06 04:09:42;;;;;;;50.13;22.00;;;;;;;4.80;100.00;100535.41;5093951;27;20044;-74
2024/01/06 04:12:08;;;;;;;55.75;24.85;;;;;;;4.68;100.00;100544.75;5099482;27;20055;-75
2024/01/06 04:14:33;;;;;;;58.50;25.10;;;;;;;4.86;100.00;100543.06;5091686;27;20113;-73
2024/01/06 04:16:59;;;;;;;64.43;26.52;;;;;;;4.82;100.00;100551.19;5101611;27;20031;-74
2024/01/06 04:19:24;;;;;;;67.93;27.23;;;;;;;4.85;100.00;100551.06;5097445;27;20649;-74
2024/01/06 04:21:50;;;;;;;78.55;28.73;;;;;;;4.83;100.00;100545.00;5100772;27;20035;-73
2024/01/06 04:24:15;;;;;;;84.13;33.38;;;;;;;4.86;100.00;100545.69;5101694;27;20031;-74
2024/01/06 04:26:44;;;;;;;75.53;30.52;;;;;;;4.95;100.00;100544.44;5089047;27;20561;-75
2024/01/06 04:29:10;;;;;;;75.95;30.75;;;;;;;4.86;100.00;100545.69;5070960;27;20032;-74
2024/01/06 04:31:36;;;;;;;79.70;32.13;;;;;;;4.98;100.00;100548.75;5090760;28;20042;-74
2024/01/06 04:34:03;;;;;;;78.57;33.35;;;;;;;5.01;100.00;100552.09;5097576;27;20891;-74
2024/01/06 04:36:28;;;;;;;86.75;32.58;;;;;;;4.86;100.00;100551.00;5094038;27;20560;-74
2024/01/06 04:38:54;;;;;;;77.90;31.25;;;;;;;4.79;100.00;100559.25;5091622;27;20047;-74
2024/01/06 04:41:20;;;;;;;74.13;31.00;;;;;;;4.80;100.00;100561.84;5089501;28;20718;-74
2024/01/06 04:43:46;;;;;;;72.40;30.40;;;;;;;4.75;100.00;100566.47;5103352;27;20177;-73
2024/01/06 04:46:11;;;;;;;77.55;32.30;;;;;;;4.37;100.00;100558.41;5081043;27;20043;-73
2024/01/06 04:48:40;;;;;;;82.70;32.55;;;;;;;4.58;100.00;100571.63;5099582;27;20035;-73
2024/01/06 04:51:09;;;;;;;74.70;29.75;;;;;;;4.38;100.00;100573.31;5096599;27;20469;-74
2024/01/06 04:53:34;;;;;;;77.10;30.23;;;;;;;4.09;100.00;100579.81;5090022;27;20044;-74
2024/01/06 04:56:00;;;;;;;70.63;30.50;;;;;;;4.35;100.00;100584.00;5108221;27;20037;-74
2024/01/06 04:58:26;;;;;;;70.90;31.98;;;;;;;4.53;100.00;100592.09;5094806;27;20883;-74
2024/01/06 05:00:52;;;;;;;82.63;31.58;;;;;;;4.65;100.00;100596.84;5081645;28;20886;-73
2024/01/06 05:03:18;;;;;;;86.88;33.38;;;;;;;4.54;100.00;100591.16;5092957;27;20505;-74
2024/01/06 05:05:43;;;;;;;78.47;32.55;;;;;;;4.65;100.00;100596.84;5101498;27;20047;-74
2024/01/06 05:08:09;;;;;;;83.07;31.98;;;;;;;4.30;100.00;100590.41;5096837;27;20032;-73
2024/01/06 05:10:34;;;;;;;94.97;36.10;;;;;;;4.45;100.00;100599.47;5096914;27;20168;-74
2024/01/06 05:13:00;;;;;;;81.70;33.53;;;;;;;4.26;100.00;100604.63;5097112;27;20139;-74
2024/01/06 05:15:26;;;;;;;74.72;30.42;;;;;;;4.35;100.00;100607.75;5097311;27;20036;-74
2024/01/06 05:17:52;;;;;;;64.13;28.13;;;;;;;4.26;100.00;100602.84;5076228;27;20036;-73
2024/01/06 05:20:17;;;;;;;64.80;28.17;;;;;;;4.36;100.00;100605.97;5083613;27;20032;-74
2024/01/06 05:22:43;;;;;;;65.50;29.85;;;;;;;4.23;100.00;100608.28;5090755;28;20040;-74
2024/01/06 05:25:09;;;;;;;69.28;30.27;;;;;;;4.19;100.00;100611.97;5090718;28;20058;-74
2024/01/06 05:27:35;;;;;;;63.38;29.27;;;;;;;4.34;100.00;100616.59;5096179;27;20038;-73
2024/01/06 05:30:00;;;;;;;71.18;32.00;;;;;;;4.29;100.00;100608.03;5092514;28;20798;-73
2024/01/06 05:32:26;;;;;;;71.88;29.80;;;;;;;4.29;100.00;100618.56;5085888;27;20137;-74
2024/01/06 05:34:52;;;;;;;71.50;30.10;;;;;;;4.10;100.00;100617.59;5103122;27;20044;-74
2024/01/06 05:37:18;;;;;;;66.30;30.05;;;;;;;3.87;100.00;100632.59;5076740;28;20059;-74
2024/01/06 05:39:43;;;;;;;63.40;29.02;;;;;;;4.12;100.00;100631.63;5074178;28;20067;-74
2024/01/06 05:42:13;;;;;;;71.18;29.27;;;;;;;4.33;100.00;100624.59;5091966;28;20458;-74
2024/01/06 05:44:38;;;;;;;59.30;27.95;;;;;;;3.94;100.00;100630.56;5086890;27;20991;-73
2024/01/06 05:47:04;;;;;;;56.30;26.33;;;;;;;4.05;100.00;100632.75;5093349;28;20055;-73
2024/01/06 05:49:30;;;;;;;55.50;27.00;;;;;;;4.29;100.00;100628.28;5098762;27;20043;-74
2024/01/06 05:51:56;;;;;;;63.38;27.58;;;;;;;4.24;100.00;100625.81;5104965;27;20036;-74
2024/01/06 05:54:21;;;;;;;52.55;25.95;;;;;;;3.93;100.00;100638.53;5073560;27;20032;-74
2024/01/06 05:56:47;;;;;;;60.92;27.65;;;;;;;3.83;100.00;100640.66;5110838;27;20032;-73
2024/01/06 05:59:12;;;;;;;52.70;23.50;;;;;;;4.18;100.00;100646.34;5093075;27;20029;-74
2024/01/06 06:01:38;;;;;;;52.25;24.45;;;;;;;4.03;100.00;100651.28;5116740;27;20032;-74
2024/01/06 06:04:03;;;;;;;61.28;27.13;;;;;;;4.10;100.00;100652.75;5109981;27;20046;-73
2024/01/06 06:06:30;;;;;;;50.97;24.50;;;;;;;4.13;100.00;100660.56;5099099;27;20031;-73
2024/01/06 06:08:56;;;;;;;55.20;25.48;;;;;;;4.12;100.00;100663.28;5109063;27;20029;-74
2024/01/06 06:11:21;;;;;;;58.97;26.38;;;;;;;3.94;100.00;100658.72;5109338;27;20044;-73
2024/01/06 06:13:47;;;;;;;53.28;25.25;;;;;;;3.95;100.00;100663.91;5114553;27;20040;-74
2024/01/06 06:16:12;;;;;;;55.38;24.55;;;;;;;3.95;100.00;100671.81;5117756;27;20027;-73
2024/01/06 06:18:38;;;;;;;62.67;27.70;;;;;;;4.14;100.00;100670.19;5111972;27;20036;-73
2024/01/06 06:21:04;;;;;;;56.20;25.77;;;;;;;4.16;100.00;100675.41;5121637;27;20817;-73
2024/01/06 06:23:32;;;;;;;56.03;25.10;;;;;;;4.25;100.00;100680.31;5119825;27;20767;-74
2024/01/06 06:25:59;;;;;;;66.25;27.33;;;;;;;4.14;100.00;100686.03;5101970;27;20135;-74
2024/01/06 06:28:24;;;;;;;73.75;27.58;;;;;;;4.23;100.00;100687.44;5120464;27;20103;-74
2024/01/06 06:30:50;;;;;;;59.10;27.40;;;;;;;4.20;100.00;100692.84;5117421;28;20552;-73
2024/01/06 06:33:15;;;;;;;64.00;28.55;;;;;;;4.16;100.00;100702.66;5124763;27;21564;-74
2024/01/06 06:35:41;;;;;;;55.28;25.45;;;;;;;4.16;100.00;100710.56;5105904;28;20032;-74
2024/01/06 06:38:07;;;;;;;65.28;28.40;;;;;;;4.14;100.00;100722.09;5101219;28;20045;-74
2024/01/06 06:40:32;;;;;;;69.85;29.67;;;;;;;4.00;100.00;100722.63;5094909;28;20051;-73
2024/01/06 06:42:57;;;;;;;72.57;32.92;;;;;;;3.77;100.00;100726.16;5104959;28;20755;-73
2024/01/06 06:45:23;;;;;;;73.75;33.70;;;;;;;4.00;100.00;100733.19;5102877;28;20424;-74
2024/01/06 06:47:49;;;;;;;78.55;32.70;;;;;;;4.27;100.00;100738.34;5098401;27;20033;-74
2024/01/06 06:50:20;;;;;;;78.15;32.38;;;;;;;4.14;100.00;100738.81;5096875;28;20879;-74
2024/01/06 06:52:46;;;;;;;75.50;32.30;;;;;;;4.22;100.00;100748.19;5095356;27;20036;-74
2024/01/06 06:55:12;;;;;;;82.82;32.42;;;;;;;4.14;100.00;100751.13;5082355;28;20043;-74
2024/01/06 06:57:38;;;;;;;61.22;26.60;;;;;;;4.16;100.00;100744.00;5083686;28;20413;-73
2024/01/06 07:00:07;;;;;;;52.95;23.48;;;;;;;4.07;100.00;100747.88;5089096;28;20040;-73
2024/01/06 07:02:33;;;;;;;44.47;21.65;;;;;;;3.76;100.00;100742.00;5085384;28;20036;-74
2024/01/06 07:04:59;;;;;;;41.17;21.35;;;;;;;3.57;100.00;100753.25;5077934;28;20036;-73
2024/01/06 07:07:25;;;;;;;42.55;21.50;;;;;;;3.57;100.00;100758.53;5081533;28;20028;-73
2024/01/06 07:09:50;;;;;;;46.78;22.27;;;;;;;3.72;100.00;100764.16;5080825;28;20930;-73
2024/01/06 07:12:16;;;;;;;47.90;23.67;;;;;;;3.65;100.00;100774.06;5082705;28;20040;-74
2024/01/06 07:14:41;;;;;;;51.35;25.60;;;;;;;3.66;100.00;100786.31;5086767;28;20847;-74
2024/01/06 07:17:08;;;;;;;59.05;26.77;;;;;;;3.90;100.00;100782.78;5080414;28;20031;-74
2024/01/06 07:19:34;;;;;;;54.65;24.85;;;;;;;3.91;100.00;100786.28;5079011;27;20038;-74
2024/01/06 07:22:00;;;;;;;58.13;27.00;;;;;;;3.81;100.00;100790.16;5080381;28;20036;-74
2024/01/06 07:24:26;;;;;;;58.22;27.45;;;;;;;3.75;100.00;100793.03;5088682;28;20028;-74
2024/01/06 07:26:52;;;;;;;58.47;28.38;;;;;;;3.87;100.00;100792.63;5079016;27;20044;-73
2024/01/06 07:29:18;;;;;;;66.55;30.05;;;;;;;3.90;100.00;100795.97;5077491;28;20048;-74
2024/01/06 07:31:44;;;;;;;59.15;27.38;;;;;;;3.99;100.00;100797.44;5083449;28;20094;-74
2024/01/06 07:34:10;;;;;;;61.55;28.10;;;;;;;3.84;100.00;100806.75;5078829;28;20114;-73
2024/01/06 07:36:35;;;;;;;61.38;29.00;;;;;;;3.68;100.00;100810.88;5082326;27;20062;-74
2024/01/06 07:39:01;;;;;;;57.20;27.65;;;;;;;3.45;100.00;100813.44;5082942;28;20048;-75
2024/01/06 07:41:28;;;;;;;55.30;26.08;;;;;;;3.75;100.00;100817.63;5076622;28;20128;-75
2024/01/06 07:43:54;;;;;;;63.78;28.73;;;;;;;3.66;100.00;100817.09;5076769;28;20032;-74
2024/01/06 07:46:19;;;;;;;64.07;29.42;;;;;;;3.46;100.00;100826.56;5076420;27;20126;-74
2024/01/06 07:48:45;;;;;;;63.83;28.30;;;;;;;3.49;100.00;100830.88;5076302;28;20036;-74
2024/01/06 07:51:11;;;;;;;67.40;29.20;;;;;;;3.41;100.00;100832.91;5081254;28;20106;-74
2024/01/06 07:53:36;;;;;;;58.85;27.48;;;;;;;3.48;100.00;100830.00;5073283;28;20020;-74
2024/01/06 07:56:02;;;;;;;60.38;28.38;;;;;;;3.48;100.00;100835.28;5077734;28;20043;-74
2024/01/06 07:58:28;;;;;;;66.60;29.65;;;;;;;3.57;100.00;100840.25;5080794;28;20102;-74
2024/01/06 08:00:54;;;;;;;68.22;30.83;;;;;;;3.56;100.00;100845.56;5075465;28;20052;-73
2024/01/06 08:03:19;;;;;;;59.30;28.45;;;;;;;3.44;100.00;100857.38;5064785;28;20036;-75
2024/01/06 08:05:45;;;;;;;64.47;31.27;;;;;;;3.28;100.00;100858.81;5081029;28;20040;-74
2024/01/06 08:08:12;;;;;;;63.95;30.80;;;;;;;3.53;100.00;100853.59;5079707;28;20028;-74
2024/01/06 08:10:38;;;;;;;70.72;32.13;;;;;;;3.53;100.00;100865.00;5077191;28;20076;-74
2024/01/06 08:13:03;;;;;;;71.55;30.65;;;;;;;3.35;100.00;100866.44;5071366;28;20095;-73
2024/01/06 08:15:29;;;;;;;70.75;32.15;;;;;;;3.56;100.00;100871.91;5070048;28;20036;-74
2024/01/06 08:17:54;;;;;;;73.55;32.05;;;;;;;3.64;100.00;100868.09;5077121;28;20041;-74
2024/01/06 08:20:20;;;;;;;58.40;27.15;;;;;;;3.48;100.00;100877.47;5075412;28;20036;-74
2024/01/06 08:22:46;;;;;;;61.20;28.33;;;;;;;3.61;100.00;100883.16;5077773;28;21024;-74
2024/01/06 08:25:13;;;;;;;62.50;29.95;;;;;;;3.56;100.00;100888.59;5081120;28;20032;-74
2024/01/06 08:27:38;;;;;;;58.35;27.52;;;;;;;3.58;100.00;100886.78;5071985;27;20032;-74
2024/01/06 08:30:04;;;;;;;60.05;30.42;;;;;;;3.50;100.00;100893.22;5057857;28;20045;-74
2024/01/06 08:32:30;;;;;;;68.40;30.92;;;;;;;3.29;100.00;100897.44;5073252;28;20143;-74
2024/01/06 08:34:56;;;;;;;78.35;32.33;;;;;;;3.44;100.00;100902.19;5085459;28;20036;-73
2024/01/06 08:37:21;;;;;;;73.68;29.67;;;;;;;3.56;100.00;100901.78;5082831;27;20405;-74
2024/01/06 08:39:47;;;;;;;79.20;32.42;;;;;;;3.36;100.00;100907.72;5096851;27;20053;-73
2024/01/06 08:42:13;;;;;;;72.38;32.10;;;;;;;3.44;100.00;100912.75;5087369;28;20250;-74
2024/01/06 08:44:39;;;;;;;65.93;28.65;;;;;;;3.57;100.00;100916.69;5082402;27;20209;-73
2024/01/06 08:47:04;;;;;;;74.18;32.25;;;;;;;3.67;100.00;100914.63;5091348;27;20043;-74
2024/01/06 08:49:30;;;;;;;67.30;30.13;;;;;;;3.59;100.00;100917.50;5092432;27;21155;-73
2024/01/06 08:51:55;;;;;;;79.60;33.38;;;;;;;3.66;100.00;100925.19;5080333;27;20062;-74
2024/01/06 08:54:21;;;;;;;72.50;29.23;;;;;;;3.64;100.00;100928.75;5096432;27;20036;-74
2024/01/06 08:56:47;;;;;;;58.88;26.85;;;;;;;3.67;100.00;100925.16;5097450;27;20108;-73
2024/01/06 08:59:12;;;;;;;69.85;28.83;;;;;;;3.52;100.00;100934.44;5092728;27;20035;-74
2024/01/06 09:01:38;;;;;;;65.68;27.08;;;;;;;3.48;100.00;100934.59;5069570;27;20047;-73
2024/01/06 09:04:04;;;;;;;67.47;29.13;;;;;;;2.98;100.00;100950.22;5051134;28;20032;-74
2024/01/06 09:06:29;;;;;;;61.83;26.50;;;;;;;3.36;100.00;100960.44;5076344;27;20040;-74
2024/01/06 09:08:55;;;;;;;55.92;25.58;;;;;;;3.21;100.00;100957.41;5088777;28;20031;-74
2024/01/06 09:11:20;;;;;;;58.00;25.00;;;;;;;3.52;100.00;100960.81;5073439;28;20040;-74
2024/01/06 09:13:46;;;;;;;49.55;22.52;;;;;;;3.51;100.00;100960.84;5074262;27;20031;-73
2024/01/06 09:16:12;;;;;;;53.05;23.30;;;;;;;3.56;100.00;100962.41;5094915;27;20039;-74
2024/01/06 09:18:37;;;;;;;47.53;23.40;;;;;;;3.45;100.00;100963.69;5095285;27;20043;-74
2024/01/06 09:21:03;;;;;;;49.35;22.02;;;;;;;3.46;100.00;100963.63;5088442;27;20044;-74
2024/01/06 09:23:28;;;;;;;49.85;22.20;;;;;;;3.47;100.00;100973.28;5080791;28;20066;-74
2024/01/06 09:25:54;;;;;;;54.95;23.17;;;;;;;3.32;100.00;100979.03;5087026;27;20595;-75
2024/01/06 09:28:23;;;;;;;51.83;22.70;;;;;;;3.34;100.00;100975.44;5086296;27;20032;-75
2024/01/06 09:30:49;;;;;;;53.78;23.95;;;;;;;3.21;100.00;100978.47;5098887;27;20061;-73
2024/01/06 09:33:17;;;;;;;47.08;22.90;;;;;;;3.29;100.00;100985.25;5084508;27;20919;-73
2024/01/06 09:35:44;;;;;;;51.17;22.40;;;;;;;3.37;100.00;100992.94;5077259;27;20019;-73
2024/01/06 09:38:10;;;;;;;55.03;25.25;;;;;;;3.40;100.00;100989.31;5091652;27;20048;-75
2024/01/06 09:40:43;;;;;;;51.08;23.92;;;;;;;3.19;100.00;100998.75;5087245;27;20028;-75
2024/01/06 09:43:09;;;;;;;55.63;26.25;;;;;;;3.28;100.00;100996.69;5088480;27;20138;-77
2024/01/06 09:45:35;;;;;;;50.88;22.58;;;;;;;3.29;100.00;101008.97;5071169;27;20109;-72
2024/01/06 09:48:12;;;;;;;54.15;24.42;;;;;;;3.36;100.00;101018.44;5069109;27;20902;-73
2024/01/06 09:50:42;;;;;;;53.47;22.40;;;;;;;3.28;100.00;101016.94;5088828;27;20044;-76
2024/01/06 09:53:11;;;;;;;52.05;22.83;;;;;;;3.21;100.00;101028.53;5090459;27;20036;-75
2024/01/06 09:55:38;;;;;;;46.58;23.83;;;;;;;3.33;100.00;101028.19;5101815;27;20113;-76
2024/01/06 09:58:06;;;;;;;47.78;23.80;;;;;;;3.47;100.00;101031.28;5092386;27;20028;-73
2024/01/06 10:00:32;;;;;;;51.03;25.13;;;;;;;3.34;100.00;101025.50;5071751;28;20139;-73
2024/01/06 10:02:57;;;;;;;48.85;23.05;;;;;;;3.27;100.00;101031.03;5076844;28;20034;-73
2024/01/06 10:05:23;;;;;;;48.13;23.30;;;;;;;3.29;100.00;101037.94;5071888;27;20032;-73
2024/01/06 10:07:49;;;;;;;55.25;23.92;;;;;;;3.19;100.00;101028.59;5094435;27;20139;-76
2024/01/06 10:10:15;;;;;;;50.83;24.17;;;;;;;3.08;100.00;101039.47;5092584;27;20044;-75
2024/01/06 10:12:42;;;;;;;49.22;23.15;;;;;;;3.28;100.00;101035.38;5103495;27;20040;-74
2024/01/06 10:15:09;;;;;;;49.33;21.15;;;;;;;3.35;100.00;101044.81;5102132;27;20036;-73
2024/01/06 10:17:39;;;;;;;50.22;25.42;;;;;;;3.26;100.00;101039.81;5090175;28;20064;-74
2024/01/06 10:20:10;;;;;;;46.78;22.08;;;;;;;3.13;100.00;101052.50;5110728;27;20032;-74
2024/01/06 10:22:42;;;;;;;43.85;22.30;;;;;;;3.24;100.00;101049.53;5103765;27;20033;-74
2024/01/06 10:25:09;;;;;;;48.35;22.13;;;;;;;3.31;100.00;101057.25;5114408;27;20061;-75
2024/01/06 10:27:36;;;;;;;51.55;24.80;;;;;;;3.36;100.00;101050.06;5102367;27;20032;-74
2024/01/06 10:30:01;;;;;;;44.75;21.73;;;;;;;3.46;100.00;101049.75;5109072;27;20031;-74
2024/01/06 10:32:32;;;;;;;49.35;24.23;;;;;;;3.14;100.00;101056.00;5120955;27;20041;-74
2024/01/06 10:34:58;;;;;;;48.15;23.73;;;;;;;3.42;100.00;101061.31;5121284;27;20035;-74
2024/01/06 10:37:24;;;;;;;50.22;23.92;;;;;;;3.27;100.00;101060.88;5119805;27;20033;-74
2024/01/06 10:40:08;;;;;;;51.10;26.67;;;;;;;3.17;100.00;101061.19;5122773;27;20064;-75
2024/01/06 10:42:33;;;;;;;54.83;27.63;;;;;;;3.16;100.00;101062.94;5119871;27;20032;-74
2024/01/06 10:45:00;;;;;;;56.15;26.58;;;;;;;2.94;100.00;101070.59;5127806;27;20039;-74
2024/01/06 10:47:30;;;;;;;50.70;23.75;;;;;;;3.26;100.00;101071.44;5122344;27;20035;-74
2024/01/06 10:49:59;;;;;;;52.53;25.52;;;;;;;3.38;100.00;101071.94;5115791;27;20099;-74
2024/01/06 10:52:28;;;;;;;50.65;23.73;;;;;;;3.13;100.00;101075.34;5116778;27;20036;-74
2024/01/06 10:54:57;;;;;;;51.13;24.48;;;;;;;3.02;100.00;101073.03;5115153;27;20131;-74
2024/01/06 10:57:23;;;;;;;58.50;25.00;;;;;;;2.96;100.00;101079.34;5123202;27;20071;-74
2024/01/06 10:59:51;;;;;;;60.30;27.08;;;;;;;3.01;100.00;101082.69;5129939;27;20036;-74
2024/01/06 11:02:17;;;;;;;58.45;27.10;;;;;;;2.91;100.00;101083.84;5124438;27;20105;-75
2024/01/06 11:04:47;;;;;;;59.13;26.38;;;;;;;3.16;100.00;101089.28;5103531;28;20043;-74